Time;durP1;ratioP1;P1;durP2;ratioP2;P2;SDS_P1;SDS_P2;PMS_P1;PMS_P2;Temp;Humidity;BMP_temperature;BMP_pressure;BME280_temperature;BME280_humidity;BME280_pressure;Samples;Min_cycle;Max_cycle;Signal;HPM_P1;HPM_P2
2024/02/17 00:02:24;;;;;;;1.70;0.80;;;12.40;99.90;;;;;;5136037;27;20447;-51
2024/02/17 00:04:51;;;;;;;1.90;0.80;;;12.40;99.90;;;;;;5136092;27;20446;-52
2024/02/17 00:07:19;;;;;;;2.33;0.80;;;12.50;99.90;;;;;;5131437;27;20630;-48
2024/02/17 00:09:46;;;;;;;2.63;0.80;;;12.40;99.90;;;;;;5126580;27;20524;-51
2024/02/17 00:12:13;;;;;;;1.50;0.90;;;12.40;99.90;;;;;;5128642;27;20422;-49
2024/02/17 00:14:40;;;;;;;2.30;1.10;;;12.40;99.90;;;;;;5123199;27;20434;-52
2024/02/17 00:17:07;;;;;;;2.58;0.93;;;12.40;99.90;;;;;;5131382;27;20482;-52
2024/02/17 00:19:34;;;;;;;2.07;0.70;;;12.40;99.90;;;;;;5129181;27;20483;-51
2024/02/17 00:22:01;;;;;;;1.30;0.80;;;12.40;99.90;;;;;;5134738;27;20505;-51
2024/02/17 00:24:29;;;;;;;1.90;1.00;;;12.40;99.90;;;;;;5130754;27;20728;-51
2024/02/17 00:26:56;;;;;;;1.85;0.70;;;12.30;99.90;;;;;;5127706;27;20771;-51
2024/02/17 00:29:23;;;;;;;1.60;0.80;;;12.40;99.90;;;;;;5126879;27;20419;-50
2024/02/17 00:31:50;;;;;;;1.50;0.70;;;12.40;99.90;;;;;;5129359;27;20431;-50
2024/02/17 00:34:18;;;;;;;1.10;0.80;;;12.40;99.90;;;;;;5129536;27;20493;-51
2024/02/17 00:36:45;;;;;;;1.10;0.70;;;12.50;99.90;;;;;;5125598;27;20453;-52
2024/02/17 00:39:12;;;;;;;1.10;0.70;;;12.50;99.90;;;;;;5129360;27;20900;-52
2024/02/17 00:41:41;;;;;;;2.00;0.70;;;12.50;99.90;;;;;;5130155;27;20835;-49
2024/02/17 00:44:08;;;;;;;1.40;0.60;;;12.50;99.90;;;;;;5127307;27;20805;-50
2024/02/17 00:46:35;;;;;;;1.70;0.60;;;12.60;99.90;;;;;;5126517;27;20572;-51
2024/02/17 00:49:02;;;;;;;1.50;0.60;;;12.50;99.90;;;;;;5112280;28;20544;-52
2024/02/17 00:51:29;;;;;;;2.50;0.70;;;12.50;99.90;;;;;;5129786;28;20424;-51
2024/02/17 00:53:56;;;;;;;1.20;0.70;;;12.50;99.90;;;;;;5130690;27;20505;-54
2024/02/17 00:56:23;;;;;;;1.50;0.60;;;12.60;99.90;;;;;;5129442;27;20526;-52
2024/02/17 00:58:51;;;;;;;0.90;0.55;;;12.60;99.90;;;;;;5126713;28;20412;-52
2024/02/17 01:01:18;;;;;;;1.10;0.50;;;12.60;99.90;;;;;;5130068;28;20418;-48
2024/02/17 01:03:45;;;;;;;1.10;0.60;;;12.60;99.90;;;;;;5124180;28;20497;-51
2024/02/17 01:06:12;;;;;;;1.30;0.65;;;12.60;99.90;;;;;;5125469;28;20445;-51
2024/02/17 01:08:39;;;;;;;1.20;0.70;;;12.60;99.90;;;;;;5121791;28;20492;-52
2024/02/17 01:11:06;;;;;;;1.10;0.60;;;12.60;99.90;;;;;;5127478;27;20489;-50
2024/02/17 01:13:33;;;;;;;0.70;0.43;;;12.60;99.90;;;;;;5134134;27;20668;-53
2024/02/17 01:16:02;;;;;;;1.40;0.50;;;12.60;99.90;;;;;;5133294;27;20441;-53
2024/02/17 01:18:29;;;;;;;1.58;0.50;;;12.60;99.90;;;;;;5131349;27;20427;-52
2024/02/17 01:20:56;;;;;;;1.00;0.50;;;12.60;99.90;;;;;;5128770;27;20428;-49
2024/02/17 01:23:23;;;;;;;1.40;0.50;;;12.60;99.90;;;;;;5130764;27;20681;-50
2024/02/17 01:25:50;;;;;;;0.70;0.40;;;12.70;99.90;;;;;;5133759;27;20402;-52
2024/02/17 01:28:18;;;;;;;0.90;0.40;;;12.70;99.90;;;;;;5132904;27;20471;-51
2024/02/17 01:30:45;;;;;;;1.13;0.60;;;12.70;99.90;;;;;;5131191;27;20474;-53
2024/02/17 01:33:15;;;;;;;1.40;0.50;;;12.60;99.90;;;;;;5132938;27;20433;-51
2024/02/17 01:35:42;;;;;;;0.70;0.40;;;12.60;99.90;;;;;;5125681;27;20856;-50
2024/02/17 01:38:09;;;;;;;0.90;0.50;;;12.60;99.90;;;;;;5132184;27;20467;-51
2024/02/17 01:40:36;;;;;;;0.70;0.50;;;12.60;99.90;;;;;;5129620;27;20501;-53
2024/02/17 01:43:05;;;;;;;0.70;0.50;;;12.60;99.90;;;;;;5134178;27;20536;-52
2024/02/17 01:45:32;;;;;;;0.80;0.50;;;12.60;99.90;;;;;;5119277;27;20418;-50
2024/02/17 01:48:00;;;;;;;0.60;0.40;;;12.50;99.90;;;;;;5124690;27;20492;-53
2024/02/17 01:50:29;;;;;;;0.88;0.50;;;12.50;99.90;;;;;;5128832;27;20520;-52
2024/02/17 01:52:56;;;;;;;1.05;0.50;;;12.50;99.90;;;;;;5124971;27;20412;-50
2024/02/17 01:55:24;;;;;;;0.60;0.40;;;12.50;99.90;;;;;;5128660;27;20446;-48
2024/02/17 01:57:52;;;;;;;0.50;0.30;;;12.50;99.90;;;;;;5127983;27;20457;-51
2024/02/17 02:00:20;;;;;;;0.70;0.30;;;12.60;99.90;;;;;;5130710;27;20840;-51
2024/02/17 02:02:47;;;;;;;0.50;0.30;;;12.50;99.90;;;;;;5124404;27;20439;-49
2024/02/17 02:05:15;;;;;;;0.70;0.30;;;12.50;99.90;;;;;;5127052;27;20413;-48
2024/02/17 02:07:43;;;;;;;0.60;0.40;;;12.50;99.90;;;;;;5125923;27;20792;-48
2024/02/17 02:10:10;;;;;;;0.60;0.32;;;12.50;99.90;;;;;;5127475;27;20471;-53
2024/02/17 02:12:38;;;;;;;0.50;0.30;;;12.50;99.90;;;;;;5128455;27;20467;-51
2024/02/17 02:15:06;;;;;;;0.50;0.20;;;12.50;99.90;;;;;;5127763;27;20456;-49
2024/02/17 02:17:34;;;;;;;0.40;0.20;;;12.50;99.90;;;;;;5125476;27;20471;-50
2024/02/17 02:20:01;;;;;;;0.50;0.20;;;12.60;99.90;;;;;;5132806;27;20418;-52
2024/02/17 02:22:28;;;;;;;0.70;0.20;;;12.50;99.90;;;;;;5132406;27;20418;-52
2024/02/17 02:24:59;;;;;;;0.40;0.25;;;12.50;99.90;;;;;;5131250;27;20489;-50
2024/02/17 02:27:28;;;;;;;0.40;0.20;;;12.40;99.90;;;;;;5113068;27;20409;-49
2024/02/17 02:29:56;;;;;;;0.60;0.30;;;12.30;99.90;;;;;;5134763;27;20423;-48
2024/02/17 02:32:26;;;;;;;0.73;0.30;;;12.30;99.90;;;;;;5114150;27;20489;-51
2024/02/17 02:34:58;;;;;;;0.70;0.40;;;12.40;99.90;;;;;;5134287;27;20513;-51
2024/02/17 02:37:28;;;;;;;0.70;0.40;;;12.30;99.90;;;;;;5132726;27;20422;-49
2024/02/17 02:39:55;;;;;;;0.90;0.50;;;12.40;99.90;;;;;;5131497;27;20473;-50
2024/02/17 02:42:22;;;;;;;1.20;0.57;;;12.30;99.90;;;;;;5132094;27;20475;-51
2024/02/17 02:44:50;;;;;;;1.67;0.50;;;12.40;99.90;;;;;;5130913;27;20412;-52
2024/02/17 02:47:18;;;;;;;1.03;0.70;;;12.50;99.90;;;;;;5131654;27;20467;-49
2024/02/17 02:49:45;;;;;;;0.93;0.50;;;12.50;99.90;;;;;;5133476;27;20696;-51
2024/02/17 02:52:12;;;;;;;1.35;0.60;;;12.50;99.90;;;;;;5133202;27;20422;-53
2024/02/17 02:54:39;;;;;;;2.00;0.70;;;12.50;99.90;;;;;;5130909;27;20426;-48
2024/02/17 02:57:06;;;;;;;1.40;0.70;;;12.50;99.90;;;;;;5132350;27;20716;-49
2024/02/17 02:59:33;;;;;;;1.30;0.90;;;12.40;99.90;;;;;;5132851;27;20761;-52
2024/02/17 03:02:04;;;;;;;1.83;0.93;;;12.50;99.90;;;;;;5128787;27;21026;-51
2024/02/17 03:04:31;;;;;;;2.50;0.80;;;12.50;99.90;;;;;;5129079;27;20426;-51
2024/02/17 03:06:58;;;;;;;2.50;0.95;;;12.40;99.90;;;;;;5130121;27;20439;-53
2024/02/17 03:09:25;;;;;;;1.50;1.00;;;12.30;99.90;;;;;;5133470;27;20442;-50
2024/02/17 03:11:53;;;;;;;2.67;1.00;;;12.20;99.90;;;;;;5130678;27;20427;-53
2024/02/17 03:14:20;;;;;;;3.27;1.30;;;12.20;99.90;;;;;;5127883;27;20821;-52
2024/02/17 03:16:47;;;;;;;2.00;0.90;;;12.10;99.90;;;;;;5133822;27;20492;-52
2024/02/17 03:19:16;;;;;;;1.50;1.00;;;12.20;99.90;;;;;;5130771;27;20494;-53
2024/02/17 03:21:43;;;;;;;3.10;1.50;;;12.30;99.90;;;;;;5132815;27;20830;-52
2024/02/17 03:24:10;;;;;;;1.92;1.25;;;12.20;99.90;;;;;;5133128;27;20418;-52
2024/02/17 03:26:37;;;;;;;2.70;1.10;;;12.20;99.90;;;;;;5131996;27;20418;-47
2024/02/17 03:29:04;;;;;;;3.30;1.20;;;12.20;99.90;;;;;;5131442;27;20511;-49
2024/02/17 03:31:31;;;;;;;2.60;1.20;;;12.20;99.90;;;;;;5132410;27;20424;-48
2024/02/17 03:33:59;;;;;;;2.78;1.20;;;12.20;99.90;;;;;;5131834;27;20482;-51
2024/02/17 03:36:27;;;;;;;3.00;1.50;;;12.30;99.90;;;;;;5132552;27;20727;-53
2024/02/17 03:38:54;;;;;;;2.88;1.20;;;12.40;99.90;;;;;;5127878;27;20462;-52
2024/02/17 03:41:21;;;;;;;2.88;1.50;;;12.30;99.90;;;;;;5132347;27;20434;-51
2024/02/17 03:43:48;;;;;;;2.78;1.17;;;12.40;99.90;;;;;;5133321;27;20513;-51
2024/02/17 03:46:15;;;;;;;2.13;1.10;;;12.30;99.90;;;;;;5133129;27;20414;-52
2024/02/17 03:48:43;;;;;;;4.82;1.60;;;12.30;99.90;;;;;;5131143;27;20934;-51
2024/02/17 03:51:11;;;;;;;2.72;1.50;;;12.20;99.90;;;;;;5131436;27;20410;-50
2024/02/17 03:53:41;;;;;;;3.75;1.60;;;12.20;99.90;;;;;;5126484;27;20415;-52
2024/02/17 03:56:08;;;;;;;3.50;1.10;;;12.10;99.90;;;;;;5132113;27;20432;-52
2024/02/17 03:58:35;;;;;;;2.53;1.20;;;12.00;99.90;;;;;;5129944;27;20708;-52
2024/02/17 04:01:02;;;;;;;2.22;1.10;;;12.10;99.90;;;;;;5133218;27;20424;-51
2024/02/17 04:03:30;;;;;;;3.33;1.40;;;12.10;99.90;;;;;;5131669;27;20439;-54
2024/02/17 04:05:57;;;;;;;2.20;1.10;;;12.10;99.90;;;;;;5132776;27;20754;-49
2024/02/17 04:08:24;;;;;;;2.08;1.08;;;11.90;99.90;;;;;;5132858;27;20476;-48
2024/02/17 04:10:54;;;;;;;4.43;1.60;;;12.00;99.90;;;;;;5129283;27;20420;-49
2024/02/17 04:13:21;;;;;;;2.10;1.13;;;11.90;99.90;;;;;;5131244;27;20458;-48
2024/02/17 04:15:48;;;;;;;3.20;1.20;;;11.90;99.90;;;;;;5132821;27;20438;-47
2024/02/17 04:18:15;;;;;;;2.90;1.30;;;11.80;99.90;;;;;;5124383;27;20411;-48
2024/02/17 04:20:42;;;;;;;2.72;1.20;;;11.90;99.90;;;;;;5132016;27;20996;-52
2024/02/17 04:23:09;;;;;;;4.82;1.20;;;11.80;99.90;;;;;;5132623;27;20436;-50
2024/02/17 04:25:36;;;;;;;2.50;1.00;;;11.70;99.90;;;;;;5128428;27;20425;-51
2024/02/17 04:28:07;;;;;;;2.65;1.23;;;11.80;99.90;;;;;;5130016;27;20421;-50
2024/02/17 04:30:34;;;;;;;2.20;0.90;;;12.00;99.90;;;;;;5128659;27;20537;-53
2024/02/17 04:33:01;;;;;;;2.30;0.90;;;12.20;99.90;;;;;;5131559;27;20403;-49
2024/02/17 04:35:29;;;;;;;2.42;1.00;;;12.20;99.90;;;;;;5132541;27;20440;-47
2024/02/17 04:37:56;;;;;;;1.67;0.85;;;12.20;99.90;;;;;;5124241;27;20430;-53
2024/02/17 04:40:23;;;;;;;1.88;0.90;;;12.10;99.90;;;;;;5129766;27;20418;-51
2024/02/17 04:42:52;;;;;;;2.20;0.90;;;12.00;99.90;;;;;;5128241;27;20422;-52
2024/02/17 04:45:20;;;;;;;1.30;0.70;;;11.90;99.90;;;;;;5128184;27;20410;-51
2024/02/17 04:47:47;;;;;;;1.30;0.70;;;11.90;99.90;;;;;;5129024;27;20526;-49
2024/02/17 04:50:14;;;;;;;1.27;0.70;;;12.10;99.90;;;;;;5124112;27;20418;-52
2024/02/17 04:52:42;;;;;;;1.20;0.60;;;12.20;99.90;;;;;;5131828;27;20418;-48
2024/02/17 04:55:10;;;;;;;1.60;0.70;;;12.20;99.90;;;;;;5132376;27;20488;-48
2024/02/17 04:57:37;;;;;;;2.22;0.80;;;12.30;99.90;;;;;;5130061;27;20430;-51
2024/02/17 05:00:05;;;;;;;1.77;0.80;;;12.20;99.90;;;;;;5130703;27;20416;-51
2024/02/17 05:02:36;;;;;;;1.80;0.80;;;12.20;99.90;;;;;;5131867;28;20441;-54
2024/02/17 05:05:03;;;;;;;5.30;1.10;;;12.10;99.90;;;;;;5131432;28;20829;-48
2024/02/17 05:07:30;;;;;;;2.40;1.00;;;12.00;99.90;;;;;;5131989;28;20423;-51
2024/02/17 05:10:00;;;;;;;3.33;1.50;;;12.10;99.90;;;;;;5129051;28;20804;-53
2024/02/17 05:12:27;;;;;;;1.90;1.10;;;12.00;99.90;;;;;;5130510;28;20471;-51
2024/02/17 05:14:54;;;;;;;2.10;1.10;;;12.00;99.90;;;;;;5130855;28;20779;-50
2024/02/17 05:17:20;;;;;;;4.28;1.48;;;12.00;99.90;;;;;;5131326;28;20525;-51
2024/02/17 05:19:49;;;;;;;2.60;1.50;;;11.90;99.90;;;;;;5128803;28;20450;-52
2024/02/17 05:22:16;;;;;;;3.58;1.52;;;11.80;99.90;;;;;;5126425;28;20461;-52
2024/02/17 05:24:43;;;;;;;3.50;1.20;;;11.70;99.90;;;;;;5129961;28;20422;-52
2024/02/17 05:27:10;;;;;;;5.35;2.05;;;11.80;99.90;;;;;;5130804;28;20413;-53
2024/02/17 05:29:39;;;;;;;5.53;1.67;;;11.70;99.90;;;;;;5123453;28;20836;-53
2024/02/17 05:32:07;;;;;;;5.68;2.00;;;11.80;99.90;;;;;;5131424;28;20454;-52
2024/02/17 05:34:34;;;;;;;3.17;1.40;;;11.90;99.90;;;;;;5131053;28;20422;-51
2024/02/17 05:37:04;;;;;;;2.90;1.50;;;11.90;99.90;;;;;;5128928;28;20759;-52
2024/02/17 05:39:32;;;;;;;3.72;1.55;;;12.00;99.90;;;;;;5130814;28;20485;-52
2024/02/17 05:41:59;;;;;;;5.38;2.35;;;12.00;99.90;;;;;;5131177;28;20422;-51
2024/02/17 05:44:26;;;;;;;3.70;1.65;;;11.80;99.90;;;;;;5130969;28;20418;-52
2024/02/17 05:46:53;;;;;;;3.63;1.55;;;11.70;99.90;;;;;;5130252;27;20756;-49
2024/02/17 05:49:21;;;;;;;4.60;1.70;;;11.80;99.90;;;;;;5130786;28;20418;-52
2024/02/17 05:51:48;;;;;;;4.30;1.50;;;11.90;99.90;;;;;;5131726;28;20423;-51
2024/02/17 05:54:16;;;;;;;5.35;2.10;;;11.70;99.90;;;;;;5131756;28;20410;-52
2024/02/17 05:56:44;;;;;;;4.70;1.90;;;11.60;99.90;;;;;;5136358;27;20461;-50
2024/02/17 05:59:11;;;;;;;5.30;2.20;;;11.60;99.90;;;;;;5137503;27;20681;-52
2024/02/17 06:01:38;;;;;;;4.70;2.17;;;11.50;99.90;;;;;;5136741;27;20510;-52
2024/02/17 06:04:05;;;;;;;5.25;1.90;;;11.50;99.90;;;;;;5133753;27;20705;-50
2024/02/17 06:06:32;;;;;;;4.78;2.10;;;11.50;99.90;;;;;;5132508;27;20439;-50
2024/02/17 06:08:59;;;;;;;5.90;2.40;;;11.70;99.90;;;;;;5135038;27;20498;-51
2024/02/17 06:11:27;;;;;;;4.40;1.80;;;11.70;99.90;;;;;;5133609;27;20426;-50
2024/02/17 06:13:54;;;;;;;4.82;1.55;;;11.80;99.90;;;;;;5132037;27;20602;-48
2024/02/17 06:16:21;;;;;;;3.95;2.15;;;11.80;99.90;;;;;;5134588;27;20529;-50
2024/02/17 06:21:33;;;;;;;4.10;1.65;;;11.70;99.90;;;;;;5134069;27;20569;-51
2024/02/17 06:24:02;;;;;;;6.03;2.15;;;11.70;99.90;;;;;;5134541;27;20506;-53
2024/02/17 06:26:32;;;;;;;4.10;1.83;;;11.70;99.90;;;;;;5132865;27;20433;-49
2024/02/17 06:29:00;;;;;;;5.50;1.90;;;11.50;99.90;;;;;;5128957;27;20416;-48
2024/02/17 06:31:27;;;;;;;4.97;1.83;;;11.50;99.90;;;;;;5132596;27;20418;-53
2024/02/17 06:33:56;;;;;;;4.38;2.28;;;11.50;99.90;;;;;;5132746;27;20468;-50
2024/02/17 06:36:23;;;;;;;4.35;1.75;;;11.50;99.90;;;;;;5128957;27;20415;-51
2024/02/17 06:38:51;;;;;;;6.90;2.20;;;11.50;99.90;;;;;;5132552;27;20515;-53
2024/02/17 06:41:18;;;;;;;4.70;2.17;;;11.40;99.90;;;;;;5129461;27;20426;-50
2024/02/17 06:43:47;;;;;;;5.32;2.38;;;11.30;99.90;;;;;;5135018;27;20450;-49
2024/02/17 06:46:15;;;;;;;4.90;2.35;;;11.30;99.90;;;;;;5137938;27;20426;-54
2024/02/17 06:48:42;;;;;;;4.90;2.10;;;11.30;99.90;;;;;;5137634;27;20457;-52
2024/02/17 06:51:10;;;;;;;5.68;2.40;;;11.30;99.90;;;;;;5132696;27;20410;-54
2024/02/17 06:53:37;;;;;;;4.65;2.50;;;11.20;99.90;;;;;;5136300;27;20453;-55
2024/02/17 06:56:04;;;;;;;6.38;2.70;;;11.10;99.90;;;;;;5135377;27;20460;-52
2024/02/17 06:58:32;;;;;;;6.63;2.25;;;11.10;99.90;;;;;;5135265;27;20466;-54
2024/02/17 07:01:00;;;;;;;5.90;3.17;;;11.10;99.90;;;;;;5136110;27;20768;-53
2024/02/17 07:03:28;;;;;;;4.78;2.30;;;11.10;99.90;;;;;;5133285;27;20699;-54
2024/02/17 07:05:56;;;;;;;6.20;2.58;;;11.20;99.90;;;;;;5128681;27;20415;-54
2024/02/17 07:08:23;;;;;;;6.10;1.92;;;11.40;99.90;;;;;;5134697;27;20798;-54
2024/02/17 07:10:50;;;;;;;6.25;3.00;;;11.40;99.90;;;;;;5132852;27;20425;-53
2024/02/17 07:13:17;;;;;;;8.35;2.90;;;11.40;99.90;;;;;;5136134;27;20455;-49
2024/02/17 07:15:45;;;;;;;5.90;3.00;;;11.30;99.90;;;;;;5136795;27;20430;-50
2024/02/17 07:18:16;;;;;;;5.55;2.65;;;11.30;99.90;;;;;;5137757;27;20531;-53
2024/02/17 07:20:44;;;;;;;6.75;2.88;;;11.40;99.90;;;;;;5149329;27;20865;-53
2024/02/17 07:23:13;;;;;;;6.68;2.40;;;11.40;99.90;;;;;;5137977;27;20430;-54
2024/02/17 07:25:41;;;;;;;6.45;2.40;;;11.30;99.90;;;;;;5135064;27;20422;-54
2024/02/17 07:28:11;;;;;;;5.07;1.95;;;11.20;99.90;;;;;;5133246;27;20435;-54
2024/02/17 07:30:41;;;;;;;5.03;2.55;;;11.20;99.90;;;;;;5125597;27;20422;-53
2024/02/17 07:33:09;;;;;;;7.75;2.40;;;11.20;99.90;;;;;;5131302;27;20452;-55
2024/02/17 07:35:42;;;;;;;6.40;2.45;;;11.20;99.90;;;;;;5130414;27;20421;-50
2024/02/17 07:38:09;;;;;;;5.30;1.92;;;11.40;99.90;;;;;;5133042;27;20438;-52
2024/02/17 07:40:36;;;;;;;7.40;2.50;;;11.50;99.90;;;;;;5132245;27;20525;-54
2024/02/17 07:43:04;;;;;;;5.10;2.47;;;11.60;99.90;;;;;;5130904;27;20522;-54
2024/02/17 07:45:31;;;;;;;6.95;2.60;;;11.60;99.90;;;;;;5133180;27;20772;-50
2024/02/17 07:47:58;;;;;;;5.30;1.90;;;11.60;99.90;;;;;;5129275;27;20525;-54
2024/02/17 07:50:25;;;;;;;3.60;1.30;;;11.60;99.90;;;;;;5131974;27;20410;-51
2024/02/17 07:52:54;;;;;;;4.35;2.00;;;11.60;99.90;;;;;;5128600;27;20523;-52
2024/02/17 07:55:21;;;;;;;4.32;2.08;;;11.50;99.90;;;;;;5129420;27;20414;-51
2024/02/17 07:57:48;;;;;;;3.78;1.90;;;11.50;99.90;;;;;;5121312;27;20468;-52
2024/02/17 08:00:16;;;;;;;5.57;1.83;;;11.60;99.90;;;;;;5125398;27;20446;-52
2024/02/17 08:02:45;;;;;;;4.00;1.60;;;11.70;99.90;;;;;;5135016;27;20446;-53
2024/02/17 08:05:12;;;;;;;5.78;1.80;;;11.90;99.90;;;;;;5121890;27;20445;-51
2024/02/17 08:07:40;;;;;;;5.22;1.77;;;12.00;99.90;;;;;;5136003;27;20512;-53
2024/02/17 08:10:10;;;;;;;5.03;1.52;;;12.00;99.90;;;;;;5130756;27;20866;-50
2024/02/17 08:12:37;;;;;;;3.60;2.20;;;12.20;99.90;;;;;;5131396;27;20749;-54
2024/02/17 08:15:06;;;;;;;3.70;1.83;;;12.20;99.90;;;;;;5131203;27;20505;-53
2024/02/17 08:17:33;;;;;;;3.00;1.30;;;12.20;99.90;;;;;;5130457;27;20831;-58
2024/02/17 08:20:00;;;;;;;5.78;1.88;;;12.20;99.90;;;;;;5124851;27;20471;-59
2024/02/17 08:22:27;;;;;;;5.10;1.80;;;12.20;99.90;;;;;;5127889;27;20422;-58
2024/02/17 08:24:53;;;;;;;4.03;1.50;;;12.10;99.90;;;;;;5133671;27;20479;-58
2024/02/17 08:27:22;;;;;;;4.70;2.40;;;12.10;99.90;;;;;;5132994;27;20768;-58
2024/02/17 08:29:49;;;;;;;5.40;1.90;;;12.10;99.90;;;;;;5131420;27;20472;-58
2024/02/17 08:32:16;;;;;;;5.07;1.70;;;12.10;99.90;;;;;;5127492;27;20442;-56
2024/02/17 08:34:43;;;;;;;4.60;2.03;;;12.10;99.90;;;;;;5126408;27;20434;-57
2024/02/17 08:37:12;;;;;;;7.25;2.65;;;12.20;99.90;;;;;;5130869;27;20433;-58
2024/02/17 08:39:39;;;;;;;5.22;2.47;;;12.00;99.90;;;;;;5133068;27;20441;-58
2024/02/17 08:42:06;;;;;;;6.13;2.10;;;12.10;99.90;;;;;;5129562;27;20445;-58
2024/02/17 08:44:36;;;;;;;6.65;2.75;;;12.10;99.90;;;;;;5129360;27;20426;-58
2024/02/17 08:47:03;;;;;;;5.50;2.40;;;12.10;99.90;;;;;;5126093;27;20435;-57
2024/02/17 08:49:31;;;;;;;6.50;1.60;;;12.10;99.90;;;;;;5127477;27;20466;-57
2024/02/17 08:51:58;;;;;;;5.30;1.70;;;12.20;99.90;;;;;;5126059;27;20416;-56
2024/02/17 08:54:25;;;;;;;4.50;1.50;;;12.40;99.90;;;;;;5130475;27;20856;-58
2024/02/17 08:56:52;;;;;;;7.57;2.40;;;12.50;99.90;;;;;;5123376;27;20597;-56
2024/02/17 08:59:19;;;;;;;6.07;3.13;;;12.30;99.90;;;;;;5130045;27;20475;-57
2024/02/17 09:01:47;;;;;;;3.25;1.55;;;12.20;99.90;;;;;;5118981;28;20430;-58
2024/02/17 09:04:14;;;;;;;6.43;2.20;;;12.30;99.90;;;;;;5125346;27;20450;-58
2024/02/17 09:06:41;;;;;;;4.80;2.00;;;12.60;99.90;;;;;;5120517;27;20443;-57
2024/02/17 09:09:08;;;;;;;4.70;2.28;;;12.80;99.90;;;;;;5128668;28;20414;-58
2024/02/17 09:11:35;;;;;;;6.03;1.90;;;13.00;99.90;;;;;;5130593;28;20855;-57
2024/02/17 09:14:03;;;;;;;5.35;2.03;;;13.00;99.90;;;;;;5118845;28;20427;-57
2024/02/17 09:16:30;;;;;;;6.38;2.10;;;12.90;99.90;;;;;;5133379;27;20426;-57
2024/02/17 09:18:58;;;;;;;4.80;2.00;;;12.60;99.90;;;;;;5131483;28;20898;-57
2024/02/17 09:21:25;;;;;;;3.35;1.25;;;12.60;99.90;;;;;;5129501;28;20418;-56
2024/02/17 09:23:52;;;;;;;4.90;1.70;;;12.90;99.90;;;;;;5128451;28;20414;-60
2024/02/17 09:26:19;;;;;;;2.95;1.60;;;13.00;99.90;;;;;;5136434;28;20430;-59
2024/02/17 09:28:46;;;;;;;2.67;1.33;;;13.10;99.90;;;;;;5133357;28;20472;-59
2024/02/17 09:31:13;;;;;;;3.65;1.52;;;13.10;99.90;;;;;;5123597;27;20426;-59
2024/02/17 09:33:40;;;;;;;3.00;1.80;;;13.10;99.90;;;;;;5126984;27;20511;-60
2024/02/17 09:36:08;;;;;;;3.20;1.42;;;13.10;99.90;;;;;;5123066;27;20422;-59
2024/02/17 09:38:35;;;;;;;3.45;1.52;;;13.10;99.90;;;;;;5129647;27;20513;-59
2024/02/17 09:41:03;;;;;;;3.13;1.30;;;12.80;99.90;;;;;;5131095;27;20461;-58
2024/02/17 09:43:30;;;;;;;3.55;1.65;;;12.90;99.90;;;;;;5142023;27;20895;-62
2024/02/17 09:45:57;;;;;;;2.50;1.20;;;12.90;99.90;;;;;;5126525;27;20439;-59
2024/02/17 09:48:25;;;;;;;3.05;1.20;;;13.10;99.90;;;;;;5124298;27;20436;-59
2024/02/17 09:50:53;;;;;;;3.00;1.40;;;13.40;99.90;;;;;;5145481;27;20894;-59
2024/02/17 09:53:23;;;;;;;5.10;1.47;;;13.40;99.90;;;;;;5121785;27;20949;-58
2024/02/17 09:55:50;;;;;;;2.30;1.30;;;13.50;99.90;;;;;;5135111;27;20487;-59
2024/02/17 09:58:17;;;;;;;2.30;1.30;;;13.50;99.90;;;;;;5137100;27;20459;-58
2024/02/17 10:00:44;;;;;;;2.80;1.50;;;13.60;99.90;;;;;;5124443;27;20472;-59
2024/02/17 10:03:10;;;;;;;2.53;1.20;;;13.60;99.90;;;;;;5126655;27;20440;-58
2024/02/17 10:05:38;;;;;;;3.55;1.40;;;13.70;99.90;;;;;;5129897;27;20442;-57
2024/02/17 10:08:07;;;;;;;2.50;1.30;;;13.70;99.90;;;;;;5137468;27;20422;-58
2024/02/17 10:10:36;;;;;;;4.25;1.40;;;13.70;99.90;;;;;;5142652;27;20430;-59
2024/02/17 10:13:03;;;;;;;2.90;1.40;;;13.60;99.90;;;;;;5136290;27;20529;-58
2024/02/17 10:15:32;;;;;;;2.20;1.20;;;13.30;99.90;;;;;;5127401;27;20517;-58
2024/02/17 10:17:59;;;;;;;3.03;1.30;;;13.30;99.90;;;;;;5137188;27;20819;-58
2024/02/17 10:20:26;;;;;;;3.20;1.30;;;13.50;99.90;;;;;;5130013;27;20526;-58
2024/02/17 10:22:53;;;;;;;3.38;1.45;;;13.50;99.90;;;;;;5135915;27;20541;-58
2024/02/17 10:25:19;;;;;;;3.20;1.20;;;13.60;99.90;;;;;;5141443;27;20830;-58
2024/02/17 10:27:48;;;;;;;4.07;1.20;;;13.80;99.90;;;;;;5136262;27;20462;-57
2024/02/17 10:30:17;;;;;;;4.78;1.27;;;14.00;99.90;;;;;;5133319;27;20470;-58
2024/02/17 10:32:44;;;;;;;2.10;1.27;;;14.00;99.90;;;;;;5134674;27;20876;-58
2024/02/17 10:35:12;;;;;;;3.10;1.40;;;14.00;99.90;;;;;;5125813;27;20815;-58
2024/02/17 10:37:40;;;;;;;2.20;1.20;;;14.00;99.90;;;;;;5125961;27;20514;-58
2024/02/17 10:40:09;;;;;;;2.05;1.30;;;13.80;99.90;;;;;;5124491;27;20465;-59
2024/02/17 10:42:37;;;;;;;1.80;1.10;;;13.70;99.90;;;;;;5118919;27;20430;-58
2024/02/17 10:45:06;;;;;;;3.25;1.20;;;13.90;99.90;;;;;;5119817;27;20534;-58
2024/02/17 10:47:36;;;;;;;3.90;1.10;;;14.00;99.90;;;;;;5121084;27;20438;-58
2024/02/17 10:50:12;;;;;;;2.10;1.20;;;13.70;99.90;;;;;;5118321;27;20526;-58
2024/02/17 10:52:43;;;;;;;1.63;1.10;;;13.70;99.90;;;;;;5120088;27;20432;-59
2024/02/17 10:55:14;;;;;;;1.50;1.00;;;13.80;99.90;;;;;;5137565;27;20458;-58
2024/02/17 10:57:52;;;;;;;2.95;1.30;;;14.00;99.90;;;;;;5138322;27;20479;-58
2024/02/17 11:00:21;;;;;;;2.15;1.00;;;14.10;99.90;;;;;;5130781;27;20423;-58
2024/02/17 11:02:50;;;;;;;1.90;1.00;;;14.50;99.90;;;;;;5129769;27;20413;-59
2024/02/17 11:05:19;;;;;;;1.65;1.08;;;15.00;99.90;;;;;;5136958;27;20422;-59
2024/02/17 11:07:47;;;;;;;1.43;1.10;;;15.30;99.90;;;;;;5137378;27;20498;-59
2024/02/17 11:10:15;;;;;;;4.00;1.10;;;15.00;1.00;;;;;;5124324;27;20428;-59
2024/02/17 11:12:48;;;;;;;2.28;1.00;;;14.90;1.00;;;;;;5150271;27;20798;-59
2024/02/17 11:15:15;;;;;;;2.38;1.00;;;14.60;99.90;;;;;;5133305;27;20866;-59
2024/02/17 11:17:50;;;;;;;1.92;0.90;;;14.50;1.00;;;;;;5120264;27;20560;-59
2024/02/17 11:20:18;;;;;;;2.90;1.02;;;14.60;1.00;;;;;;5123808;27;20428;-59
2024/02/17 11:22:52;;;;;;;2.15;0.90;;;14.40;41.60;;;;;;5118360;27;20528;-60
2024/02/17 11:25:29;;;;;;;1.70;1.00;;;14.30;1.00;;;;;;5127998;27;20430;-60
2024/02/17 11:27:55;;;;;;;2.40;1.20;;;14.20;1.00;;;;;;5126761;27;20521;-60
2024/02/17 11:30:22;;;;;;;1.48;0.90;;;14.00;99.90;;;;;;5119117;27;20497;-59
2024/02/17 11:32:57;;;;;;;2.45;1.10;;;14.00;4.40;;;;;;5122246;27;20514;-59
2024/02/17 11:35:25;;;;;;;5.30;2.30;;;14.20;1.00;;;;;;5116203;27;20502;-59
2024/02/17 11:37:55;;;;;;;4.50;1.10;;;14.30;1.00;;;;;;5134732;27;20450;-62
2024/02/17 11:40:23;;;;;;;1.60;1.00;;;14.40;99.90;;;;;;5125552;27;21066;-59
2024/02/17 11:42:54;;;;;;;2.60;0.93;;;14.50;99.90;;;;;;5128516;27;20458;-59
2024/02/17 11:45:21;;;;;;;2.00;1.02;;;14.50;99.90;;;;;;5136537;27;20429;-59
2024/02/17 11:47:49;;;;;;;1.70;1.00;;;14.50;1.00;;;;;;5134082;27;20468;-60
2024/02/17 11:50:18;;;;;;;1.58;0.90;;;14.50;1.00;;;;;;5136159;27;20434;-60
2024/02/17 11:52:45;;;;;;;2.30;0.90;;;14.50;99.90;;;;;;5146734;27;20829;-61
2024/02/17 11:55:15;;;;;;;1.75;0.95;;;14.40;99.90;;;;;;5136681;27;20426;-61
2024/02/17 11:57:43;;;;;;;2.03;0.90;;;14.30;1.00;;;;;;5119608;27;20491;-61
2024/02/17 12:00:12;;;;;;;2.00;1.00;;;14.40;49.80;;;;;;5117645;27;20430;-61
2024/02/17 12:02:40;;;;;;;2.00;0.90;;;14.50;99.90;;;;;;5131761;27;20439;-60
2024/02/17 12:05:08;;;;;;;1.15;0.82;;;14.80;1.00;;;;;;5129461;27;20418;-61
2024/02/17 12:07:37;;;;;;;1.40;0.80;;;14.80;99.90;;;;;;5137138;27;20462;-59
2024/02/17 12:10:04;;;;;;;1.83;0.70;;;14.70;1.00;;;;;;5152332;27;20412;-61
2024/02/17 12:12:32;;;;;;;1.58;0.60;;;14.60;1.00;;;;;;5144128;27;20458;-60
2024/02/17 12:14:59;;;;;;;1.20;0.70;;;14.60;1.00;;;;;;5136397;27;20426;-61
2024/02/17 12:17:27;;;;;;;1.00;0.60;;;14.80;1.00;;;;;;5119918;27;20455;-61
2024/02/17 12:19:54;;;;;;;1.00;0.60;;;14.80;1.00;;;;;;5116412;28;20432;-61
2024/02/17 12:22:21;;;;;;;1.40;0.60;;;14.60;99.90;;;;;;5128838;27;20913;-61
2024/02/17 12:24:50;;;;;;;1.00;0.50;;;14.50;1.00;;;;;;5119833;27;20475;-61
2024/02/17 12:27:18;;;;;;;0.80;0.60;;;14.40;1.00;;;;;;5134644;27;20413;-61
2024/02/17 12:29:51;;;;;;;1.85;0.70;;;14.30;1.00;;;;;;5157422;27;20420;-61
2024/02/17 12:32:21;;;;;;;1.00;0.60;;;14.10;1.00;;;;;;5154720;27;20756;-61
2024/02/17 12:34:49;;;;;;;1.40;0.80;;;14.00;1.00;;;;;;5136655;27;20496;-60
2024/02/17 12:37:17;;;;;;;0.90;0.60;;;13.80;1.00;;;;;;5137109;27;20731;-61
2024/02/17 12:39:45;;;;;;;1.30;0.70;;;13.80;41.50;;;;;;5114648;27;20493;-61
2024/02/17 12:42:14;;;;;;;1.50;0.80;;;13.70;99.90;;;;;;5134467;27;20428;-61
2024/02/17 12:44:41;;;;;;;2.03;0.70;;;13.50;61.30;;;;;;5138946;27;20424;-60
2024/02/17 12:47:16;;;;;;;1.33;0.70;;;13.40;99.90;;;;;;5137087;27;20426;-61
2024/02/17 12:49:43;;;;;;;1.40;0.60;;;13.50;1.00;;;;;;5137664;27;20487;-62
2024/02/17 12:52:10;;;;;;;1.43;0.60;;;13.50;40.10;;;;;;5135642;27;20705;-60
2024/02/17 12:54:38;;;;;;;1.20;0.40;;;13.70;1.00;;;;;;5123774;28;20410;-60